createdAt,value
2019-02-17T00:00:49.967Z,34.47
2019-02-17T00:03:16.443Z,34.17
2019-02-17T00:05:42.775Z,36.50
2019-02-17T00:08:09.247Z,39.50
2019-02-17T00:10:35.603Z,32.27
2019-02-17T00:13:01.952Z,33.03
2019-02-17T00:15:28.424Z,38.57
2019-02-17T00:17:54.801Z,38.43
2019-02-17T00:20:21.271Z,35.07
2019-02-17T00:22:47.845Z,33.30
2019-02-17T00:25:14.404Z,30.37
2019-02-17T00:27:40.752Z,32.10
2019-02-17T00:30:08.627Z,36.40
2019-02-17T00:32:36.984Z,34.30
2019-02-17T00:35:04.686Z,33.80
2019-02-17T00:37:31.135Z,31.27
2019-02-17T00:39:57.599Z,34.87
2019-02-17T00:42:24.047Z,31.90
2019-02-17T00:44:50.519Z,35.03
2019-02-17T00:47:16.970Z,35.00
2019-02-17T00:49:43.435Z,35.10
2019-02-17T00:52:09.816Z,28.93
2019-02-17T00:54:36.288Z,37.27
2019-02-17T00:57:02.737Z,31.73
2019-02-17T00:59:29.183Z,34.03
2019-02-17T01:01:55.563Z,29.67
2019-02-17T01:04:21.935Z,32.77
2019-02-17T01:06:48.527Z,34.37
2019-02-17T01:09:15.076Z,32.23
2019-02-17T01:11:41.544Z,31.93
2019-02-17T01:14:08.088Z,27.50
2019-02-17T01:16:34.663Z,31.70
2019-02-17T01:19:01.211Z,29.37
2019-02-17T01:21:27.680Z,30.80
2019-02-17T01:23:54.133Z,35.00
2019-02-17T01:26:20.500Z,32.97
2019-02-17T01:28:46.947Z,34.63
2019-02-17T01:31:13.326Z,35.07
2019-02-17T01:33:39.829Z,36.93
2019-02-17T01:36:06.376Z,34.00
2019-02-17T01:38:32.825Z,37.73
2019-02-17T01:40:59.391Z,28.73
2019-02-17T01:43:25.798Z,33.60
2019-02-17T01:45:52.444Z,37.83
2019-02-17T01:48:19.055Z,36.90
2019-02-17T01:50:45.504Z,38.63
2019-02-17T01:53:12.019Z,40.40
2019-02-17T01:55:38.535Z,39.63
2019-02-17T01:58:05.188Z,36.13
2019-02-17T02:00:31.624Z,38.10
2019-02-17T02:02:58.087Z,34.53
2019-02-17T02:05:24.635Z,38.60
2019-02-17T02:07:51.007Z,40.90
2019-02-17T02:10:17.575Z,38.50
2019-02-17T02:12:44.045Z,36.43
2019-02-17T02:15:10.694Z,34.10
2019-02-17T02:17:37.159Z,40.97
2019-02-17T02:20:05.408Z,36.03
2019-02-17T02:22:31.972Z,37.83
2019-02-17T02:24:58.351Z,35.43
2019-02-17T02:27:24.919Z,33.27
2019-02-17T02:29:51.367Z,36.17
2019-02-17T02:32:17.734Z,29.47
2019-02-17T02:34:44.225Z,31.37
2019-02-17T02:37:10.795Z,33.23
2019-02-17T02:39:37.243Z,29.10
2019-02-17T02:42:03.710Z,32.37
2019-02-17T02:44:30.155Z,29.40
2019-02-17T02:46:56.610Z,30.10
2019-02-17T02:49:23.167Z,38.60
2019-02-17T02:51:49.721Z,35.47
2019-02-17T02:54:16.087Z,34.60
2019-02-17T02:56:42.543Z,39.03
2019-02-17T02:59:09.019Z,32.40
2019-02-17T03:01:35.467Z,29.37
2019-02-17T03:04:01.940Z,35.37
2019-02-17T03:06:30.195Z,30.97
2019-02-17T03:08:56.650Z,37.37
2019-02-17T03:11:23.019Z,36.10
2019-02-17T03:13:49.586Z,31.03
2019-02-17T03:16:16.035Z,33.67
2019-02-17T03:18:42.500Z,36.93
2019-02-17T03:21:08.843Z,40.90
2019-02-17T03:23:35.224Z,37.53
2019-02-17T03:26:01.663Z,38.73
2019-02-17T03:28:28.050Z,32.37
2019-02-17T03:30:54.380Z,32.83
2019-02-17T03:33:20.778Z,36.70
2019-02-17T03:35:47.116Z,35.07
2019-02-17T03:38:13.580Z,32.27
2019-02-17T03:40:39.965Z,33.53
2019-02-17T03:43:06.412Z,36.77
2019-02-17T03:45:32.880Z,33.50
2019-02-17T03:47:59.341Z,30.07
2019-02-17T03:50:25.909Z,34.23
2019-02-17T03:52:52.466Z,32.27
2019-02-17T03:55:18.928Z,40.53
2019-02-17T03:57:45.313Z,36.37
2019-02-17T04:00:17.052Z,40.03
2019-02-17T04:02:40.254Z,35.13
2019-02-17T04:05:06.715Z,33.37
2019-02-17T04:07:33.267Z,34.93
2019-02-17T04:09:59.635Z,33.07
2019-02-17T04:12:26.091Z,38.83
2019-02-17T04:14:52.556Z,33.60
2019-02-17T04:17:18.998Z,32.97
2019-02-17T04:19:45.371Z,34.17
2019-02-17T04:22:11.819Z,33.87
2019-02-17T04:24:38.287Z,34.40
2019-02-17T04:27:04.668Z,35.80
2019-02-17T04:29:31.258Z,36.60
2019-02-17T04:31:57.694Z,31.70
2019-02-17T04:34:24.092Z,41.27
2019-02-17T04:36:50.457Z,34.83
2019-02-17T04:39:16.903Z,37.67
2019-02-17T04:41:43.371Z,40.60
2019-02-17T04:44:09.816Z,41.97
2019-02-17T04:46:36.386Z,49.10
2019-02-17T04:49:02.732Z,58.90
2019-02-17T04:51:29.098Z,57.93
2019-02-17T04:53:55.451Z,47.43
2019-02-17T04:56:21.927Z,42.90
2019-02-17T04:58:48.377Z,43.40
2019-02-17T05:01:14.759Z,39.83
2019-02-17T05:03:41.113Z,40.70
2019-02-17T05:06:07.711Z,38.60
2019-02-17T05:08:34.166Z,44.80
2019-02-17T05:11:00.644Z,35.87
2019-02-17T05:13:27.087Z,42.83
2019-02-17T05:15:53.553Z,42.03
2019-02-17T05:18:20.106Z,41.67
2019-02-17T05:20:46.572Z,41.60
2019-02-17T05:23:12.924Z,43.20
2019-02-17T05:25:39.407Z,48.90
2019-02-17T05:28:05.752Z,51.70
2019-02-17T05:30:32.144Z,51.80
2019-02-17T05:32:58.695Z,55.07
2019-02-17T05:35:25.187Z,50.37
2019-02-17T05:37:51.651Z,53.87
2019-02-17T05:40:18.017Z,48.20
2019-02-17T05:42:44.488Z,42.97
2019-02-17T05:45:11.042Z,38.57
2019-02-17T05:47:37.520Z,48.13
2019-02-17T05:50:04.617Z,43.27
2019-02-17T05:52:31.084Z,45.37
2019-02-17T05:54:57.542Z,43.87
2019-02-17T05:57:23.903Z,42.47
2019-02-17T05:59:50.256Z,37.57
2019-02-17T06:02:16.727Z,39.53
2019-02-17T06:04:43.111Z,40.37
2019-02-17T06:07:09.475Z,41.83
2019-02-17T06:09:35.823Z,39.47
2019-02-17T06:12:02.197Z,34.60
2019-02-17T06:14:28.559Z,38.00
2019-02-17T06:16:55.031Z,34.63
2019-02-17T06:19:21.478Z,33.80
2019-02-17T06:21:47.849Z,40.50
2019-02-17T06:24:14.205Z,36.07
2019-02-17T06:26:40.671Z,39.23
2019-02-17T06:29:07.247Z,36.87
2019-02-17T06:31:33.791Z,37.17
2019-02-17T06:34:00.347Z,38.23
2019-02-17T06:36:26.825Z,37.17
2019-02-17T06:38:53.375Z,35.83
2019-02-17T06:41:20.268Z,37.77
2019-02-17T06:43:46.815Z,33.00
2019-02-17T06:46:15.068Z,35.10
2019-02-17T06:48:41.474Z,31.40
2019-02-17T06:51:07.934Z,32.37
2019-02-17T06:53:34.411Z,35.40
2019-02-17T06:56:02.791Z,36.80
2019-02-17T06:58:29.232Z,33.67
2019-02-17T07:00:55.800Z,32.30
2019-02-17T07:03:22.380Z,34.73
2019-02-17T07:05:50.654Z,35.83
2019-02-17T07:08:17.036Z,36.03
2019-02-17T07:10:43.480Z,34.23
2019-02-17T07:13:09.979Z,31.73
2019-02-17T07:15:36.434Z,31.33
2019-02-17T07:18:03.006Z,37.90
2019-02-17T07:20:29.347Z,32.07
2019-02-17T07:22:55.723Z,36.53
2019-02-17T07:25:29.806Z,37.47
2019-02-17T07:27:50.342Z,35.70
2019-02-17T07:30:16.904Z,35.60
2019-02-17T07:32:43.348Z,32.20
2019-02-17T07:35:09.715Z,38.23
2019-02-17T07:37:36.291Z,33.60
2019-02-17T07:40:03.744Z,40.40
2019-02-17T07:42:30.200Z,36.53
2019-02-17T07:44:56.570Z,35.10
2019-02-17T07:47:22.934Z,36.77
2019-02-17T07:49:49.568Z,39.27
2019-02-17T07:52:16.016Z,35.30
2019-02-17T07:54:42.395Z,40.27
2019-02-17T07:57:08.884Z,38.50
2019-02-17T07:59:35.467Z,34.60
2019-02-17T08:02:01.939Z,34.13
2019-02-17T08:04:28.387Z,33.33
2019-02-17T08:06:54.847Z,36.03
2019-02-17T08:09:21.316Z,35.27
2019-02-17T08:11:47.779Z,39.57
2019-02-17T08:14:14.367Z,33.70
2019-02-17T08:16:40.725Z,39.20
2019-02-17T08:19:07.101Z,42.43
2019-02-17T08:21:33.556Z,40.73
2019-02-17T08:23:59.934Z,38.60
2019-02-17T08:26:26.283Z,53.37
2019-02-17T08:28:52.627Z,42.30
2019-02-17T08:31:19.112Z,38.73
2019-02-17T08:33:45.559Z,39.50
2019-02-17T08:36:12.048Z,41.47
2019-02-17T08:38:38.499Z,43.57
2019-02-17T08:41:04.975Z,40.17
2019-02-17T08:43:31.327Z,41.37
2019-02-17T08:45:57.723Z,37.47
2019-02-17T08:48:24.311Z,37.67
2019-02-17T08:50:50.701Z,36.87
2019-02-17T08:53:17.260Z,39.50
2019-02-17T08:55:43.828Z,43.23
2019-02-17T08:58:10.278Z,39.90
2019-02-17T09:00:36.749Z,38.60
2019-02-17T09:03:03.208Z,34.40
2019-02-17T09:05:29.671Z,37.93
2019-02-17T09:07:56.122Z,37.43
2019-02-17T09:10:22.596Z,36.60
2019-02-17T09:12:49.147Z,38.73
2019-02-17T09:15:15.627Z,37.37
2019-02-17T09:17:42.090Z,35.80
2019-02-17T09:20:09.155Z,35.57
2019-02-17T09:22:35.567Z,35.10
2019-02-17T09:25:02.753Z,30.83
2019-02-17T09:27:29.303Z,31.97
2019-02-17T09:29:55.678Z,32.00
2019-02-17T09:32:22.134Z,31.00
2019-02-17T09:34:48.515Z,30.60
2019-02-17T09:37:15.063Z,27.17
2019-02-17T09:39:41.616Z,27.90
2019-02-17T09:42:08.083Z,26.23
2019-02-17T09:44:34.431Z,28.93
2019-02-17T09:47:00.807Z,26.73
2019-02-17T09:49:27.296Z,31.67
2019-02-17T09:51:53.667Z,24.60
2019-02-17T09:54:20.067Z,26.10
2019-02-17T09:56:46.636Z,28.23
2019-02-17T09:59:13.083Z,31.30
2019-02-17T10:01:39.555Z,23.83
2019-02-17T10:04:06.007Z,21.43
2019-02-17T10:06:32.635Z,25.60
2019-02-17T10:08:59.185Z,22.58
2019-02-17T10:11:25.547Z,21.82
2019-02-17T10:13:52.098Z,18.95
2019-02-17T10:16:18.671Z,17.65
2019-02-17T10:18:45.015Z,18.87
2019-02-17T10:21:11.410Z,19.42
2019-02-17T10:23:37.795Z,18.82
2019-02-17T10:26:04.272Z,19.65
2019-02-17T10:28:30.823Z,18.45
2019-02-17T10:30:57.296Z,18.65
2019-02-17T10:33:23.753Z,20.92
2019-02-17T10:35:50.123Z,17.98
2019-02-17T10:38:16.574Z,16.37
2019-02-17T10:40:43.020Z,17.27
2019-02-17T10:43:09.371Z,17.48
2019-02-17T10:45:35.725Z,18.12
2019-02-17T10:48:02.124Z,24.02
2019-02-17T10:50:28.612Z,19.20
2019-02-17T10:52:55.187Z,19.00
2019-02-17T10:55:21.759Z,17.40
2019-02-17T10:57:48.132Z,16.42
2019-02-17T11:00:15.792Z,16.85
2019-02-17T11:02:47.075Z,17.85
2019-02-17T11:05:10.607Z,15.98
2019-02-17T11:07:36.975Z,17.52
2019-02-17T11:10:04.766Z,15.83
2019-02-17T11:12:31.339Z,17.40
2019-02-17T11:14:57.792Z,15.68
2019-02-17T11:17:24.362Z,15.85
2019-02-17T11:19:50.709Z,19.65
2019-02-17T11:22:23.072Z,18.07
2019-02-17T11:24:45.659Z,19.35
2019-02-17T11:27:12.132Z,16.30
2019-02-17T11:29:38.600Z,15.53
2019-02-17T11:32:05.043Z,15.08
2019-02-17T11:34:31.534Z,21.50
2019-02-17T11:36:57.983Z,15.13
2019-02-17T11:39:24.472Z,17.35
2019-02-17T11:41:50.823Z,18.35
2019-02-17T11:44:17.539Z,17.00
2019-02-17T11:46:43.900Z,17.92
2019-02-17T11:49:10.303Z,17.05
2019-02-17T11:51:36.354Z,15.80
2019-02-17T11:54:02.844Z,14.28
2019-02-17T11:56:29.407Z,14.60
2019-02-17T11:58:55.940Z,16.05
2019-02-17T12:01:22.354Z,13.78
2019-02-17T12:03:48.921Z,16.45
2019-02-17T12:06:14.982Z,16.07
2019-02-17T12:08:45.469Z,15.63
2019-02-17T12:11:12.045Z,18.12
2019-02-17T12:13:38.435Z,15.55
2019-02-17T12:16:04.907Z,19.95
2019-02-17T12:18:31.003Z,15.35
2019-02-17T12:20:59.403Z,14.00
2019-02-17T12:23:30.275Z,14.23
2019-02-17T12:26:04.540Z,14.85
2019-02-17T12:28:32.455Z,14.68
2019-02-17T12:30:58.508Z,14.55
2019-02-17T12:33:25.494Z,14.68
2019-02-17T12:35:52.106Z,15.43
2019-02-17T12:38:18.194Z,15.58
2019-02-17T12:40:44.595Z,15.75
2019-02-17T12:43:11.132Z,14.75
2019-02-17T12:45:37.342Z,13.65
2019-02-17T12:48:03.376Z,15.75
2019-02-17T12:50:29.403Z,13.30
2019-02-17T12:52:55.617Z,15.13
2019-02-17T12:55:22.000Z,13.43
2019-02-17T12:57:48.006Z,13.80
2019-02-17T13:00:15.313Z,13.65
2019-02-17T13:02:41.779Z,13.45
2019-02-17T13:05:08.477Z,15.95
2019-02-17T13:07:34.854Z,16.17
2019-02-17T13:10:01.252Z,14.58
2019-02-17T13:12:27.267Z,14.10
2019-02-17T13:14:53.667Z,14.83
2019-02-17T13:17:19.682Z,17.55
2019-02-17T13:19:45.849Z,14.55
2019-02-17T13:22:12.228Z,17.15
2019-02-17T13:24:38.251Z,15.03
2019-02-17T13:27:04.630Z,13.00
2019-02-17T13:29:31.023Z,14.30
2019-02-17T13:31:57.403Z,12.40
2019-02-17T13:34:23.426Z,13.75
2019-02-17T13:36:49.430Z,13.90
2019-02-17T13:39:15.838Z,15.15
2019-02-17T13:41:41.883Z,13.15
2019-02-17T13:44:07.907Z,13.95
2019-02-17T13:46:33.924Z,14.28
2019-02-17T13:49:00.331Z,13.32
2019-02-17T13:51:26.348Z,16.57
2019-02-17T13:53:52.383Z,14.63
2019-02-17T13:56:18.776Z,13.22
2019-02-17T13:58:44.797Z,15.30
2019-02-17T14:01:10.820Z,14.58
2019-02-17T14:03:36.839Z,12.20
2019-02-17T14:06:03.246Z,15.85
2019-02-17T14:08:31.290Z,14.10
2019-02-17T14:10:58.110Z,13.83
2019-02-17T14:13:26.877Z,14.33
2019-02-17T14:15:52.464Z,14.40
2019-02-17T14:18:18.494Z,15.90
2019-02-17T14:20:44.883Z,15.60
2019-02-17T14:23:10.903Z,15.55
2019-02-17T14:25:36.927Z,13.22
2019-02-17T14:28:02.944Z,13.35
2019-02-17T14:30:30.417Z,14.20
2019-02-17T14:32:56.678Z,13.03
2019-02-17T14:35:23.174Z,13.03
2019-02-17T14:37:49.559Z,14.98
2019-02-17T14:40:15.947Z,13.60
2019-02-17T14:42:41.979Z,13.38
2019-02-17T14:45:12.075Z,14.90
2019-02-17T14:47:38.467Z,13.70
2019-02-17T14:50:06.058Z,14.13
2019-02-17T14:52:32.483Z,13.70
2019-02-17T14:54:58.863Z,17.35
2019-02-17T14:57:24.883Z,13.80
2019-02-17T14:59:50.891Z,14.07
2019-02-17T15:02:17.282Z,14.85
2019-02-17T15:04:43.677Z,13.08
2019-02-17T15:07:09.692Z,12.95
2019-02-17T15:09:35.703Z,12.63
2019-02-17T15:12:01.724Z,14.75
2019-02-17T15:14:27.771Z,11.85
2019-02-17T15:16:54.179Z,12.18
2019-02-17T15:19:20.195Z,11.08
2019-02-17T15:21:46.227Z,12.65
2019-02-17T15:24:12.248Z,11.83
2019-02-17T15:26:38.272Z,11.00
2019-02-17T15:29:04.664Z,11.00
2019-02-17T15:31:31.135Z,10.88
2019-02-17T15:33:57.639Z,9.73
2019-02-17T15:36:24.371Z,10.23
2019-02-17T15:38:50.758Z,15.25
2019-02-17T15:41:16.791Z,13.13
2019-02-17T15:43:42.807Z,12.47
2019-02-17T15:46:09.188Z,13.75
2019-02-17T15:48:35.575Z,12.18
2019-02-17T15:51:06.472Z,12.20
2019-02-17T15:53:31.086Z,22.05
2019-02-17T15:55:57.638Z,16.65
2019-02-17T15:58:24.026Z,12.55
2019-02-17T16:00:50.440Z,9.50
2019-02-17T16:03:16.468Z,11.10
2019-02-17T16:05:42.480Z,11.22
2019-02-17T16:08:08.503Z,7.87
2019-02-17T16:10:34.884Z,8.58
2019-02-17T16:13:00.903Z,8.90
2019-02-17T16:15:27.295Z,8.53
2019-02-17T16:17:53.688Z,8.25
2019-02-17T16:20:20.067Z,8.70
2019-02-17T16:22:46.490Z,8.45
2019-02-17T16:25:12.864Z,7.90
2019-02-17T16:27:38.884Z,8.45
2019-02-17T16:30:12.987Z,8.13
2019-02-17T16:32:39.012Z,9.10
2019-02-17T16:35:05.639Z,8.13
2019-02-17T16:37:31.653Z,8.10
2019-02-17T16:39:58.057Z,10.27
2019-02-17T16:42:24.427Z,9.83
2019-02-17T16:44:50.841Z,10.17
2019-02-17T16:47:17.299Z,10.17
2019-02-17T16:49:43.326Z,8.33
2019-02-17T16:52:09.712Z,8.47
2019-02-17T16:54:36.103Z,7.70
2019-02-17T16:57:02.507Z,11.87
2019-02-17T16:59:28.896Z,7.90
2019-02-17T17:01:55.291Z,7.57
2019-02-17T17:04:21.678Z,10.67
2019-02-17T17:06:47.982Z,9.20
2019-02-17T17:09:14.493Z,8.57
2019-02-17T17:11:40.995Z,8.43
2019-02-17T17:14:08.997Z,9.40
2019-02-17T17:16:35.574Z,9.03
2019-02-17T17:19:01.600Z,9.80
2019-02-17T17:21:27.989Z,9.23
2019-02-17T17:23:54.381Z,11.90
2019-02-17T17:26:20.395Z,9.33
2019-02-17T17:28:46.434Z,14.03
2019-02-17T17:31:12.821Z,13.20
2019-02-17T17:33:39.229Z,10.20
2019-02-17T17:36:05.643Z,10.37
2019-02-17T17:38:32.031Z,11.50
2019-02-17T17:40:58.056Z,11.60
2019-02-17T17:43:24.444Z,12.40
2019-02-17T17:45:50.631Z,13.90
2019-02-17T17:48:16.688Z,12.23
2019-02-17T17:50:43.191Z,13.10
2019-02-17T17:53:09.579Z,11.83
2019-02-17T17:55:35.971Z,12.73
2019-02-17T17:58:02.366Z,11.97
2019-02-17T18:00:31.252Z,10.07
2019-02-17T18:02:57.282Z,8.30
2019-02-17T18:05:23.379Z,8.80
2019-02-17T18:07:49.383Z,10.07
2019-02-17T18:10:15.898Z,10.93
2019-02-17T18:12:42.472Z,13.37
2019-02-17T18:15:15.066Z,11.77
2019-02-17T18:17:41.088Z,11.97
2019-02-17T18:20:08.777Z,11.07
2019-02-17T18:22:35.171Z,10.97
2019-02-17T18:25:01.182Z,16.83
2019-02-17T18:27:27.203Z,16.50
2019-02-17T18:29:53.585Z,14.23
2019-02-17T18:32:20.003Z,14.97
2019-02-17T18:34:46.397Z,18.57
2019-02-17T18:37:12.795Z,16.23
2019-02-17T18:39:38.803Z,16.93
2019-02-17T18:42:05.211Z,14.57
2019-02-17T18:44:31.220Z,12.87
2019-02-17T18:46:57.239Z,14.90
2019-02-17T18:49:23.247Z,17.40
2019-02-17T18:51:49.656Z,20.10
2019-02-17T18:54:16.044Z,21.13
2019-02-17T18:56:42.449Z,18.43
2019-02-17T18:59:10.762Z,19.03
2019-02-17T19:01:37.119Z,27.57
2019-02-17T19:04:03.500Z,24.63
2019-02-17T19:06:29.953Z,22.00
2019-02-17T19:08:56.372Z,24.67
2019-02-17T19:11:22.388Z,22.70
2019-02-17T19:13:48.400Z,21.23
2019-02-17T19:16:14.412Z,17.87
2019-02-17T19:18:41.187Z,13.70
2019-02-17T19:21:07.567Z,10.87
2019-02-17T19:23:33.960Z,13.80
2019-02-17T19:26:00.390Z,12.23
2019-02-17T19:28:26.779Z,15.60
2019-02-17T19:30:53.181Z,15.30
2019-02-17T19:33:19.568Z,18.77
2019-02-17T19:35:45.956Z,17.50
2019-02-17T19:38:12.360Z,17.30
2019-02-17T19:40:39.295Z,19.53
2019-02-17T19:43:05.703Z,16.57
2019-02-17T19:45:32.561Z,17.80
2019-02-17T19:47:58.929Z,20.40
2019-02-17T19:50:24.939Z,19.27
2019-02-17T19:52:51.327Z,16.67
2019-02-17T19:55:17.707Z,15.97
2019-02-17T19:57:44.128Z,15.27
2019-02-17T20:00:11.617Z,14.73
2019-02-17T20:02:43.740Z,16.83
2019-02-17T20:05:12.270Z,17.30
2019-02-17T20:07:38.647Z,15.23
2019-02-17T20:10:06.462Z,16.73
2019-02-17T20:12:32.539Z,17.50
2019-02-17T20:14:58.846Z,18.43
2019-02-17T20:17:24.851Z,18.20
2019-02-17T20:19:51.239Z,19.87
2019-02-17T20:22:17.625Z,21.03
2019-02-17T20:24:44.020Z,20.57
2019-02-17T20:27:10.403Z,21.50
2019-02-17T20:29:36.791Z,16.90
2019-02-17T20:32:03.180Z,21.67
2019-02-17T20:34:29.564Z,21.40
2019-02-17T20:36:55.584Z,20.37
2019-02-17T20:39:21.599Z,19.67
2019-02-17T20:41:48.045Z,18.87
2019-02-17T20:44:14.543Z,18.47
2019-02-17T20:46:40.923Z,18.17
2019-02-17T20:49:07.350Z,21.90
2019-02-17T20:51:33.735Z,21.67
2019-02-17T20:54:00.111Z,21.13
2019-02-17T20:56:26.132Z,20.50
2019-02-17T20:58:52.515Z,20.03
2019-02-17T21:01:18.907Z,41.03
2019-02-17T21:03:45.284Z,33.93
2019-02-17T21:06:12.965Z,30.13
2019-02-17T21:08:39.660Z,22.90
2019-02-17T21:11:05.671Z,23.07
2019-02-17T21:13:31.687Z,19.30
2019-02-17T21:15:57.711Z,18.57
2019-02-17T21:18:24.094Z,24.60
2019-02-17T21:20:50.124Z,19.57
2019-02-17T21:23:16.233Z,18.03
2019-02-17T21:25:42.623Z,21.83
2019-02-17T21:28:08.644Z,21.43
2019-02-17T21:30:35.039Z,24.67
2019-02-17T21:33:01.052Z,21.33
2019-02-17T21:35:27.448Z,22.93
2019-02-17T21:37:53.870Z,20.83
2019-02-17T21:40:20.332Z,26.03
2019-02-17T21:42:46.350Z,27.43
2019-02-17T21:45:15.463Z,26.03
2019-02-17T21:47:41.501Z,26.43
2019-02-17T21:50:12.040Z,23.23
2019-02-17T21:52:38.627Z,21.87
2019-02-17T21:55:06.411Z,26.20
2019-02-17T21:57:32.802Z,25.43
2019-02-17T21:59:59.191Z,23.70
2019-02-17T22:02:25.211Z,21.70
2019-02-17T22:04:51.595Z,24.57
2019-02-17T22:07:17.987Z,24.13
2019-02-17T22:09:44.374Z,23.10
2019-02-17T22:12:10.764Z,24.63
2019-02-17T22:14:37.146Z,26.43
2019-02-17T22:17:03.539Z,21.93
2019-02-17T22:19:29.930Z,20.80
2019-02-17T22:21:56.325Z,20.50
2019-02-17T22:24:22.708Z,22.97
2019-02-17T22:26:49.132Z,18.20
2019-02-17T22:29:15.243Z,24.63
2019-02-17T22:31:41.282Z,24.33
2019-02-17T22:34:07.663Z,25.93
2019-02-17T22:36:43.323Z,22.30
2019-02-17T22:39:01.605Z,23.27
2019-02-17T22:41:27.988Z,26.43
2019-02-17T22:43:54.008Z,23.60
2019-02-17T22:46:20.011Z,21.73
2019-02-17T22:48:46.031Z,25.40
2019-02-17T22:51:12.423Z,21.50
2019-02-17T22:53:43.582Z,27.17
2019-02-17T22:56:06.346Z,23.67
2019-02-17T22:58:32.370Z,26.43
2019-02-17T23:01:00.187Z,19.63
2019-02-17T23:03:27.182Z,24.30
2019-02-17T23:05:53.572Z,22.40
2019-02-17T23:08:19.959Z,19.07
2019-02-17T23:10:46.343Z,20.20
2019-02-17T23:13:12.735Z,24.70
2019-02-17T23:15:38.755Z,21.57
2019-02-17T23:18:05.144Z,17.40
2019-02-17T23:20:31.159Z,22.00
2019-02-17T23:22:57.179Z,18.87
2019-02-17T23:25:23.592Z,18.03
2019-02-17T23:27:49.979Z,19.20
2019-02-17T23:30:16.381Z,20.47
2019-02-17T23:32:42.763Z,17.33
2019-02-17T23:35:09.679Z,19.93
2019-02-17T23:37:36.074Z,20.23
2019-02-17T23:40:04.376Z,21.57
2019-02-17T23:42:30.755Z,20.70
2019-02-17T23:44:57.158Z,19.20
2019-02-17T23:47:23.571Z,22.80
2019-02-17T23:49:49.593Z,18.70
2019-02-17T23:52:17.630Z,19.83
2019-02-17T23:54:44.029Z,21.30
2019-02-17T23:57:10.407Z,23.30
2019-02-17T23:59:36.795Z,22.03
